Time;durP1;ratioP1;P1;durP2;ratioP2;P2;SDS_P1;SDS_P2;PMS_P1;PMS_P2;Temp;Humidity;BMP_temperature;BMP_pressure;BME280_temperature;BME280_humidity;BME280_pressure;Samples;Min_cycle;Max_cycle;Signal;HPM_P1;HPM_P2
2022/03/08 00:02:38;;;;;;;12.00;6.47;;;;;;;2.58;100.00;99562.59;4968413;28;20134;-63
2022/03/08 00:05:22;;;;;;;11.38;6.72;;;;;;;2.47;100.00;99553.78;4968240;28;20106;-65
2022/03/08 00:08:07;;;;;;;12.43;6.38;;;;;;;2.52;100.00;99583.47;4969373;28;20213;-62
2022/03/08 00:10:52;;;;;;;10.57;6.22;;;;;;;2.52;100.00;99575.59;4966791;28;20105;-62
2022/03/08 00:13:37;;;;;;;12.45;6.28;;;;;;;2.40;100.00;99572.88;4969856;28;20061;-62
2022/03/08 00:16:22;;;;;;;10.40;6.65;;;;;;;2.38;100.00;99585.94;4970913;28;20070;-58
2022/03/08 00:19:06;;;;;;;10.15;6.07;;;;;;;2.34;100.00;99596.38;4981829;28;20104;-63
2022/03/08 00:21:50;;;;;;;11.20;6.60;;;;;;;2.38;100.00;99585.94;4990780;28;20056;-62
2022/03/08 00:24:35;;;;;;;10.23;6.18;;;;;;;2.22;100.00;99560.50;4991012;28;20185;-63
2022/03/08 00:27:19;;;;;;;8.18;5.53;;;;;;;2.50;100.00;99595.66;4990821;28;20124;-62
2022/03/08 00:30:05;;;;;;;10.70;5.10;;;;;;;2.67;100.00;99591.44;4996961;28;20406;-62
2022/03/08 00:32:52;;;;;;;9.32;5.45;;;;;;;2.70;100.00;99594.09;5012791;28;20061;-62
2022/03/08 00:35:36;;;;;;;8.25;4.82;;;;;;;2.72;100.00;99589.72;4997180;28;20066;-60
2022/03/08 00:38:21;;;;;;;8.30;4.78;;;;;;;2.52;100.00;99544.22;4999595;28;20116;-61
2022/03/08 00:41:06;;;;;;;8.82;4.93;;;;;;;2.80;100.00;99611.63;5006643;28;20192;-62
2022/03/08 00:43:51;;;;;;;7.05;4.20;;;;;;;2.76;100.00;99596.75;5010742;28;20056;-66
2022/03/08 00:46:37;;;;;;;7.93;4.53;;;;;;;2.58;100.00;99562.59;5011141;28;20112;-63
2022/03/08 00:49:22;;;;;;;7.15;4.38;;;;;;;2.72;100.00;99579.25;5008113;28;20449;-64
2022/03/08 00:52:07;;;;;;;6.30;4.00;;;;;;;2.88;100.00;99604.69;5009954;28;20524;-62
2022/03/08 00:54:52;;;;;;;6.78;4.10;;;;;;;2.91;100.00;99607.34;5008686;28;20061;-62
2022/03/08 00:57:37;;;;;;;7.28;3.78;;;;;;;2.88;100.00;99613.44;4996530;28;20101;-62
2022/03/08 01:00:24;;;;;;;8.02;4.15;;;;;;;2.92;100.00;99616.94;5013255;28;20473;-62
2022/03/08 01:03:09;;;;;;;6.28;3.80;;;;;;;2.86;100.00;99619.53;4996618;28;20056;-64
2022/03/08 01:05:54;;;;;;;;;;;;;;;2.89;100.00;99614.34;5011227;28;20052;-63
2022/03/08 01:08:39;;;;;;;4.55;3.28;;;;;;;2.94;100.00;99617.84;5007373;28;19975;-63
2022/03/08 01:11:24;;;;;;;;;;;;;;;2.97;100.00;99620.50;4982678;28;20586;-61
2022/03/08 01:14:10;;;;;;;4.68;3.25;;;;;;;2.84;100.00;99623.88;5013657;28;20165;-62
2022/03/08 01:16:54;;;;;;;6.90;3.20;;;;;;;2.93;100.00;99630.06;5010528;28;20052;-61
2022/03/08 01:19:39;;;;;;;4.93;3.20;;;;;;;2.91;100.00;99623.94;5010433;28;20092;-62
2022/03/08 01:22:24;;;;;;;3.88;2.90;;;;;;;2.84;100.00;99618.63;5009552;28;20125;-64
2022/03/08 01:25:12;;;;;;;3.97;3.08;;;;;;;2.91;100.00;99639.66;5008098;28;20057;-63
2022/03/08 01:27:56;;;;;;;5.97;3.05;;;;;;;2.63;100.00;99581.81;5008738;28;20044;-62
2022/03/08 01:30:41;;;;;;;4.43;3.28;;;;;;;2.84;100.00;99635.22;5014189;28;20045;-63
2022/03/08 01:33:26;;;;;;;4.72;2.83;;;;;;;2.94;100.00;99634.44;4982405;28;20137;-64
2022/03/08 01:36:11;;;;;;;4.03;2.60;;;;;;;3.03;100.00;99639.75;5009053;28;20422;-63
2022/03/08 01:38:57;;;;;;;3.97;2.75;;;;;;;2.71;100.00;99596.72;5027349;28;20486;-63
2022/03/08 01:41:42;;;;;;;6.47;3.25;;;;;;;2.88;100.00;99649.22;5027196;28;20548;-62
2022/03/08 01:44:27;;;;;;;4.95;3.15;;;;;;;2.70;100.00;99604.56;4986888;28;20051;-62
2022/03/08 01:47:30;;;;;;;5.35;3.20;;;;;;;3.01;100.00;99636.22;5027288;28;20053;-62
2022/03/08 01:50:15;;;;;;;4.10;2.92;;;;;;;2.92;100.00;99633.56;4998558;28;20057;-64
2022/03/08 01:53:00;;;;;;;5.65;3.00;;;;;;;2.82;100.00;99596.81;5029319;28;20119;-62
2022/03/08 01:55:45;;;;;;;4.22;3.08;;;;;;;3.16;100.00;99648.56;5027006;28;20536;-62
2022/03/08 01:58:30;;;;;;;4.60;3.28;;;;;;;2.95;100.00;99630.06;5014259;28;20088;-62
2022/03/08 02:01:15;;;;;;;3.80;2.73;;;;;;;2.97;100.00;99641.44;5029413;28;20374;-62
2022/03/08 02:04:00;;;;;;;5.10;2.70;;;;;;;2.82;100.00;99650.06;5013755;28;20337;-63
2022/03/08 02:06:45;;;;;;;4.15;2.17;;;;;;;2.80;100.00;99656.13;5029017;28;20566;-61
2022/03/08 02:09:30;;;;;;;;;;;;;;;2.88;100.00;99654.44;5012220;28;20100;-64
2022/03/08 02:12:15;;;;;;;6.63;2.60;;;;;;;2.50;100.00;99617.47;5031165;28;19936;-62
2022/03/08 02:15:13;;;;;;;4.03;2.60;;;;;;;2.51;100.00;99615.72;5026379;28;20052;-63
2022/03/08 02:17:59;;;;;;;4.80;2.50;;;;;;;2.71;100.00;99670.03;5028482;28;20107;-64
2022/03/08 02:20:45;;;;;;;4.10;2.50;;;;;;;2.63;100.00;99668.19;5028708;28;20547;-63
2022/03/08 02:23:29;;;;;;;4.15;2.08;;;;;;;2.64;100.00;99662.09;5026669;28;20072;-62
2022/03/08 02:26:14;;;;;;;4.45;2.40;;;;;;;2.61;100.00;99673.41;5013464;28;20056;-62
2022/03/08 02:29:03;;;;;;;5.55;2.40;;;;;;;2.63;100.00;99671.69;5027948;28;20063;-63
2022/03/08 02:31:48;;;;;;;3.83;2.33;;;;;;;2.57;100.00;99674.22;5001057;28;20052;-62
2022/03/08 02:34:32;;;;;;;3.55;2.45;;;;;;;2.47;100.00;99671.50;5034041;28;20095;-62
2022/03/08 02:37:17;;;;;;;3.38;1.98;;;;;;;2.36;100.00;99676.63;5030777;28;20076;-65
2022/03/08 02:40:03;;;;;;;4.15;2.35;;;;;;;2.32;100.00;99674.84;5015932;28;20160;-61
2022/03/08 02:42:47;;;;;;;4.70;2.58;;;;;;;2.16;100.00;99682.50;5026681;28;20409;-62
2022/03/08 02:45:32;;;;;;;5.13;2.20;;;;;;;1.86;100.00;99624.63;5028833;28;20081;-62
2022/03/08 02:48:17;;;;;;;3.75;2.20;;;;;;;2.19;100.00;99698.22;5028326;28;20055;-63
2022/03/08 02:51:03;;;;;;;4.80;2.30;;;;;;;2.16;100.00;99690.34;5028239;28;20099;-65
2022/03/08 02:53:48;;;;;;;4.47;2.80;;;;;;;2.16;100.00;99693.84;5028365;28;20052;-64
2022/03/08 02:56:33;;;;;;;3.60;2.40;;;;;;;2.10;100.00;99704.22;5011159;28;20371;-62
2022/03/08 02:59:22;;;;;;;5.10;2.50;;;;;;;2.12;100.00;99705.13;5028338;28;20080;-62
2022/03/08 03:02:07;;;;;;;4.78;2.60;;;;;;;1.88;100.00;99704.81;5012464;28;20060;-63
2022/03/08 03:04:51;;;;;;;3.72;2.28;;;;;;;1.84;100.00;99710.88;5028290;28;20457;-61
2022/03/08 03:07:36;;;;;;;5.40;2.42;;;;;;;1.64;100.00;99657.44;5012815;28;20111;-61
2022/03/08 03:10:23;;;;;;;4.90;2.42;;;;;;;2.05;100.00;99712.88;5028166;28;20071;-67
2022/03/08 03:13:07;;;;;;;4.93;2.35;;;;;;;2.02;100.00;99724.16;5013732;28;20366;-62
2022/03/08 03:15:52;;;;;;;4.68;2.55;;;;;;;1.91;100.00;99717.03;5026036;28;20052;-63
2022/03/08 03:18:36;;;;;;;4.45;2.60;;;;;;;1.96;100.00;99724.09;5029130;28;20409;-62
2022/03/08 03:21:21;;;;;;;4.13;2.50;;;;;;;2.15;100.00;99735.66;5013630;28;20507;-62
2022/03/08 03:24:05;;;;;;;4.45;2.38;;;;;;;2.07;100.00;99719.00;5014445;28;20072;-62
2022/03/08 03:26:50;;;;;;;5.97;2.78;;;;;;;2.21;100.00;99738.38;5028385;28;20052;-62
2022/03/08 03:29:35;;;;;;;5.07;2.70;;;;;;;2.22;100.00;99734.88;5012032;28;20053;-65
2022/03/08 03:32:19;;;;;;;4.32;2.60;;;;;;;1.96;100.00;99720.59;5027833;28;20064;-63
2022/03/08 03:35:05;;;;;;;4.85;2.85;;;;;;;2.07;100.00;99740.81;5010726;28;20057;-62
2022/03/08 03:37:50;;;;;;;3.90;2.58;;;;;;;1.87;100.00;99699.56;5027778;28;20057;-63
2022/03/08 03:40:34;;;;;;;6.05;2.38;;;;;;;2.29;100.00;99749.81;5026338;28;20049;-62
2022/03/08 03:43:18;;;;;;;3.70;2.37;;;;;;;2.39;100.00;99749.94;5027752;28;20048;-62
2022/03/08 03:46:05;;;;;;;5.50;2.95;;;;;;;2.46;100.00;99753.50;5012792;28;20248;-63
2022/03/08 03:48:49;;;;;;;4.43;2.90;;;;;;;2.29;100.00;99745.44;5013584;28;20060;-66
2022/03/08 03:51:34;;;;;;;4.70;2.60;;;;;;;2.23;100.00;99748.00;5031304;28;20045;-61
2022/03/08 03:54:20;;;;;;;5.45;2.70;;;;;;;2.40;100.00;99767.38;5029744;28;20060;-61
2022/03/08 03:57:05;;;;;;;4.50;2.78;;;;;;;2.48;100.00;99770.97;5016814;28;20068;-62
2022/03/08 03:59:49;;;;;;;5.82;2.92;;;;;;;2.50;100.00;99761.38;4987903;28;20060;-62
2022/03/08 04:02:34;;;;;;;4.20;2.67;;;;;;;2.54;100.00;99772.78;5016549;28;20103;-61
2022/03/08 04:05:19;;;;;;;5.45;2.65;;;;;;;2.43;100.00;99774.38;5031235;28;20125;-62
2022/03/08 04:08:04;;;;;;;4.38;2.70;;;;;;;2.39;100.00;99781.31;5002443;28;20056;-67
2022/03/08 04:10:50;;;;;;;3.72;2.50;;;;;;;2.41;100.00;99781.34;5031291;28;20128;-62
2022/03/08 04:13:35;;;;;;;4.13;2.60;;;;;;;2.46;100.00;99777.91;5000557;28;20056;-62
2022/03/08 04:16:19;;;;;;;5.40;2.53;;;;;;;2.35;100.00;99774.28;5031340;28;20084;-61
2022/03/08 04:19:04;;;;;;;3.60;2.55;;;;;;;2.38;100.00;99790.00;5001161;28;20186;-63
2022/03/08 04:21:49;;;;;;;3.65;2.60;;;;;;;2.32;100.00;99789.06;5031561;28;20071;-62
2022/03/08 04:24:35;;;;;;;4.32;2.58;;;;;;;2.33;100.00;99788.22;5016433;28;20582;-62
2022/03/08 04:27:19;;;;;;;3.72;2.38;;;;;;;2.17;100.00;99792.34;5031031;28;20471;-64
2022/03/08 04:30:09;;;;;;;5.10;2.70;;;;;;;2.21;100.00;99801.13;5030888;28;20103;-63
2022/03/08 04:32:54;;;;;;;4.55;2.83;;;;;;;1.91;100.00;99746.69;5028946;28;20412;-63
2022/03/08 04:35:39;;;;;;;4.32;2.78;;;;;;;2.29;100.00;99807.34;5016709;28;20119;-63
2022/03/08 04:38:23;;;;;;;5.45;2.42;;;;;;;2.28;100.00;99813.41;5015886;28;20528;-61
2022/03/08 04:41:08;;;;;;;5.20;2.70;;;;;;;2.22;100.00;99815.97;5030984;28;20056;-62
2022/03/08 04:43:53;;;;;;;4.72;2.58;;;;;;;2.17;100.00;99805.44;5031124;28;20056;-62
2022/03/08 04:46:38;;;;;;;5.40;3.08;;;;;;;2.16;100.00;99819.38;5001015;28;20052;-66
2022/03/08 04:49:22;;;;;;;5.03;2.80;;;;;;;2.12;100.00;99817.56;5015626;28;20098;-62
2022/03/08 04:52:07;;;;;;;5.27;3.30;;;;;;;1.88;100.00;99784.97;5000043;28;20160;-63
2022/03/08 04:54:51;;;;;;;6.57;3.17;;;;;;;2.15;100.00;99829.81;5002037;28;20076;-63
2022/03/08 04:57:37;;;;;;;3.80;2.25;;;;;;;2.11;100.00;99825.38;5030330;28;20148;-62
2022/03/08 05:00:22;;;;;;;5.68;2.72;;;;;;;2.08;100.00;99835.81;5014334;28;20052;-63
2022/03/08 05:03:06;;;;;;;5.60;3.20;;;;;;;2.12;100.00;99837.59;5030417;28;20072;-61
2022/03/08 05:05:51;;;;;;;5.70;2.95;;;;;;;2.04;100.00;99847.97;5000511;28;20511;-63
2022/03/08 05:08:36;;;;;;;5.57;3.53;;;;;;;2.21;100.00;99850.84;5001303;28;20381;-62
2022/03/08 05:11:20;;;;;;;6.38;3.20;;;;;;;2.11;100.00;99847.22;5012793;28;20060;-61
2022/03/08 05:14:06;;;;;;;6.32;3.45;;;;;;;2.12;100.00;99866.38;5030110;28;20417;-65
2022/03/08 05:16:52;;;;;;;5.05;2.83;;;;;;;2.15;100.00;99867.31;5014421;28;20531;-62
2022/03/08 05:19:36;;;;;;;6.10;3.30;;;;;;;2.02;100.00;99862.72;5029912;28;20544;-62
2022/03/08 05:22:22;;;;;;;7.18;3.88;;;;;;;2.09;100.00;99876.81;5013903;28;20095;-62
2022/03/08 05:25:07;;;;;;;6.43;3.45;;;;;;;2.08;100.00;99875.91;4999572;28;20480;-65
2022/03/08 05:27:52;;;;;;;7.60;3.97;;;;;;;2.19;100.00;99883.91;5015016;28;20140;-61
2022/03/08 05:30:37;;;;;;;6.38;3.70;;;;;;;2.13;100.00;99874.25;5031771;28;20051;-60
2022/03/08 05:33:21;;;;;;;5.97;3.65;;;;;;;2.04;100.00;99887.19;5017931;28;20056;-62
2022/03/08 05:36:06;;;;;;;7.05;3.58;;;;;;;2.00;100.00;99895.84;5006313;28;20157;-61
2022/03/08 05:38:51;;;;;;;6.30;3.58;;;;;;;2.10;100.00;99899.47;4996711;28;20440;-61
2022/03/08 05:41:36;;;;;;;6.65;3.97;;;;;;;2.27;100.00;99898.88;5003841;28;20049;-61
2022/03/08 05:44:21;;;;;;;8.50;4.38;;;;;;;2.21;100.00;99906.63;5003618;28;20180;-66
2022/03/08 05:47:06;;;;;;;7.07;3.88;;;;;;;2.02;100.00;99867.09;5018417;28;20064;-62
2022/03/08 05:49:50;;;;;;;6.25;3.83;;;;;;;1.96;100.00;99896.66;4986298;28;20532;-61
2022/03/08 05:52:35;;;;;;;6.88;4.03;;;;;;;1.94;100.00;99914.03;5003490;28;20152;-62
2022/03/08 05:55:19;;;;;;;6.00;3.80;;;;;;;2.10;100.00;99913.41;5019482;28;20141;-61
2022/03/08 05:58:04;;;;;;;5.80;3.58;;;;;;;2.05;100.00;99935.16;5000286;28;20056;-62
2022/03/08 06:00:48;;;;;;;6.25;4.00;;;;;;;2.00;100.00;99903.69;5014426;28;20464;-62
2022/03/08 06:03:33;;;;;;;8.43;4.18;;;;;;;2.19;100.00;99937.13;4993555;28;20065;-66
2022/03/08 06:06:18;;;;;;;8.95;4.32;;;;;;;2.30;100.00;99929.44;5011989;28;20587;-63
2022/03/08 06:09:02;;;;;;;6.78;3.88;;;;;;;1.92;100.00;99886.09;4989193;28;20499;-63
2022/03/08 06:11:46;;;;;;;6.10;3.63;;;;;;;2.10;100.00;99917.78;4999886;28;20469;-62
2022/03/08 06:14:31;;;;;;;5.40;3.60;;;;;;;2.18;100.00;99944.94;4999814;28;20068;-63
2022/03/08 06:17:15;;;;;;;5.90;3.03;;;;;;;2.04;100.00;99934.25;5002134;28;20055;-63
2022/03/08 06:20:00;;;;;;;5.90;3.30;;;;;;;2.19;100.00;99941.47;4988253;28;20315;-63
2022/03/08 06:22:45;;;;;;;5.75;2.88;;;;;;;2.37;100.00;99945.22;4987996;28;20047;-63
2022/03/08 06:25:29;;;;;;;5.63;3.38;;;;;;;2.44;100.00;99943.59;4987126;28;20068;-63
2022/03/08 06:28:17;;;;;;;6.20;3.67;;;;;;;2.39;100.00;99953.09;4997808;28;20057;-66
2022/03/08 06:31:01;;;;;;;9.57;3.78;;;;;;;2.21;100.00;99953.69;5017710;28;20338;-61
2022/03/08 06:33:46;;;;;;;5.85;3.83;;;;;;;2.26;100.00;99957.25;4999526;28;20730;-61
2022/03/08 06:36:31;;;;;;;6.32;3.65;;;;;;;2.38;100.00;99944.38;5001575;28;20053;-64
2022/03/08 06:39:16;;;;;;;7.00;3.70;;;;;;;2.53;100.00;99952.44;4989518;28;20111;-63
2022/03/08 06:42:01;;;;;;;6.07;3.38;;;;;;;2.43;100.00;99953.19;5018566;28;20092;-65
2022/03/08 06:44:45;;;;;;;5.07;3.17;;;;;;;2.44;100.00;99967.13;5017213;28;20378;-64
2022/03/08 06:47:30;;;;;;;5.10;3.22;;;;;;;2.66;100.00;99962.25;4999276;28;20091;-63
2022/03/08 06:50:15;;;;;;;5.03;3.33;;;;;;;2.56;100.00;99969.94;5018163;28;20268;-62
2022/03/08 06:53:00;;;;;;;6.68;3.55;;;;;;;2.76;100.00;99984.19;4999475;28;20091;-62
2022/03/08 06:55:44;;;;;;;5.50;3.58;;;;;;;2.80;100.00;99999.97;5015836;28;20048;-65
2022/03/08 06:58:29;;;;;;;;;;;;;;;2.82;100.00;99986.91;5001893;28;20084;-63
2022/03/08 07:01:15;;;;;;;5.22;3.13;;;;;;;2.56;100.00;99951.63;5019065;28;19943;-63
2022/03/08 07:04:00;;;;;;;5.97;3.22;;;;;;;2.71;100.00;99991.09;4987464;28;20099;-61
2022/03/08 07:06:45;;;;;;;5.78;3.30;;;;;;;2.59;100.00;100001.38;4994806;28;20083;-62
2022/03/08 07:09:29;;;;;;;6.75;3.40;;;;;;;2.66;100.00;100003.25;5002241;28;20056;-62
2022/03/08 07:12:14;;;;;;;9.32;4.90;;;;;;;2.76;100.00;99998.16;5009004;28;20111;-63
2022/03/08 07:14:59;;;;;;;8.23;4.28;;;;;;;2.78;100.00;100008.66;4996600;28;20449;-62
2022/03/08 07:17:47;;;;;;;7.68;3.65;;;;;;;2.84;100.00;100014.88;5000784;28;20422;-62
2022/03/08 07:20:32;;;;;;;7.30;3.90;;;;;;;2.85;100.00;100015.75;4988639;28;20140;-67
2022/03/08 07:23:17;;;;;;;7.82;3.65;;;;;;;2.71;100.00;99978.00;5017595;28;20127;-62
2022/03/08 07:26:02;;;;;;;5.90;3.60;;;;;;;2.73;100.00;99969.31;4968242;28;20057;-63
2022/03/08 07:28:47;;;;;;;7.85;3.17;;;;;;;2.60;100.00;99979.59;4971739;28;20189;-63
2022/03/08 07:31:31;;;;;;;6.43;3.70;;;;;;;2.75;100.00;100019.97;4982979;28;20053;-62
2022/03/08 07:34:15;;;;;;;6.07;3.03;;;;;;;2.74;100.00;100019.94;4999177;28;20060;-62
2022/03/08 07:37:00;;;;;;;5.35;3.05;;;;;;;2.81;100.00;100020.06;4998887;28;20069;-63
2022/03/08 07:39:44;;;;;;;8.13;3.22;;;;;;;2.94;100.00;100026.34;4967809;28;20065;-66
2022/03/08 07:42:30;;;;;;;6.15;3.50;;;;;;;2.82;100.00;100029.69;5011104;28;20103;-63
2022/03/08 07:45:14;;;;;;;4.25;2.88;;;;;;;2.84;100.00;100040.16;4997532;28;20049;-63
2022/03/08 07:47:58;;;;;;;6.85;3.03;;;;;;;2.84;100.00;100040.16;4966473;28;20168;-65
2022/03/08 07:50:43;;;;;;;5.53;3.23;;;;;;;2.61;100.00;100047.66;5002169;28;20056;-63
2022/03/08 07:53:27;;;;;;;6.82;3.70;;;;;;;2.69;100.00;100043.44;5027623;28;20307;-62
2022/03/08 07:56:12;;;;;;;5.88;3.30;;;;;;;2.71;100.00;100046.97;4984948;28;20057;-65
2022/03/08 07:58:56;;;;;;;6.72;3.88;;;;;;;2.72;100.00;100039.97;4999060;28;20077;-64
2022/03/08 08:01:41;;;;;;;7.18;3.60;;;;;;;2.42;100.00;99993.28;4980460;28;20057;-63
2022/03/08 08:04:26;;;;;;;4.80;2.90;;;;;;;2.33;100.00;100008.84;4971361;28;20052;-71
2022/03/08 08:07:10;;;;;;;5.25;3.08;;;;;;;2.86;100.00;100048.94;5002659;28;20207;-63
2022/03/08 08:09:55;;;;;;;5.43;3.05;;;;;;;3.07;100.00;100057.09;4998170;28;20044;-62
2022/03/08 08:12:40;;;;;;;5.43;3.15;;;;;;;3.08;100.00;100059.72;4989302;28;20472;-64
2022/03/08 08:15:24;;;;;;;5.83;2.90;;;;;;;2.87;100.00;100055.91;5018441;28;20052;-64
2022/03/08 08:18:09;;;;;;;;;;;;;;;2.75;100.00;100061.88;5001472;28;20371;-64
2022/03/08 08:20:54;;;;;;;6.38;3.33;;;;;;;2.83;100.00;100077.69;5001071;28;19924;-63
2022/03/08 08:23:38;;;;;;;5.30;2.80;;;;;;;2.95;100.00;100064.78;4987396;28;20160;-66
2022/03/08 08:26:23;;;;;;;6.75;2.80;;;;;;;2.85;100.00;100071.59;5003878;28;20048;-64
2022/03/08 08:29:07;;;;;;;5.22;3.08;;;;;;;2.79;100.00;100041.84;5015212;28;20393;-65
2022/03/08 08:31:52;;;;;;;5.50;3.08;;;;;;;2.95;100.00;100070.91;5001565;28;20114;-65
2022/03/08 08:34:36;;;;;;;6.10;3.47;;;;;;;3.01;100.00;100064.88;4999117;28;20136;-64
2022/03/08 08:37:21;;;;;;;5.85;3.45;;;;;;;3.28;100.00;100089.72;4993086;28;20060;-63
2022/03/08 08:40:06;;;;;;;3.97;2.83;;;;;;;3.06;100.00;100076.28;4988624;28;20157;-62
2022/03/08 08:42:51;;;;;;;4.97;3.22;;;;;;;3.17;100.00;100079.97;4990907;28;20156;-67
2022/03/08 08:45:36;;;;;;;5.18;3.20;;;;;;;3.32;100.00;100082.78;5013907;28;20053;-63
2022/03/08 08:48:23;;;;;;;4.72;2.83;;;;;;;2.84;100.00;100040.16;4981683;28;20149;-65
2022/03/08 08:51:08;;;;;;;5.53;3.25;;;;;;;3.03;100.00;100087.59;5016577;28;20053;-63
2022/03/08 08:53:53;;;;;;;6.15;2.92;;;;;;;3.16;100.00;100102.63;4993709;28;20052;-63
2022/03/08 08:56:38;;;;;;;5.82;2.88;;;;;;;2.72;100.00;100039.97;5005640;28;20088;-63
2022/03/08 08:59:23;;;;;;;5.90;3.10;;;;;;;2.67;100.00;100054.75;5006505;28;20048;-63
2022/03/08 09:02:07;;;;;;;6.85;3.45;;;;;;;2.87;100.00;100103.06;5015668;28;20521;-69
2022/03/08 09:04:52;;;;;;;4.88;2.72;;;;;;;2.84;100.00;100100.38;4975545;28;20048;-63
2022/03/08 09:07:39;;;;;;;5.72;3.20;;;;;;;2.85;100.00;100107.41;5002841;28;20064;-64
2022/03/08 09:10:23;;;;;;;6.22;3.80;;;;;;;2.90;100.00;100118.81;4988815;28;20379;-64
2022/03/08 09:13:09;;;;;;;4.10;2.80;;;;;;;2.82;100.00;100109.97;4995683;28;20052;-60
2022/03/08 09:15:54;;;;;;;5.95;3.17;;;;;;;2.91;100.00;100115.34;4995289;28;20152;-63
2022/03/08 09:18:39;;;;;;;5.03;2.97;;;;;;;2.78;100.00;100090.72;5016929;28;20116;-62
2022/03/08 09:21:24;;;;;;;5.78;3.15;;;;;;;2.91;100.00;100121.47;5016140;28;20056;-69
2022/03/08 09:24:09;;;;;;;5.65;3.10;;;;;;;2.80;100.00;100124.75;5019202;28;20056;-64
2022/03/08 09:26:54;;;;;;;4.15;2.72;;;;;;;2.78;100.00;100121.25;5003975;28;20060;-65
2022/03/08 09:29:38;;;;;;;6.63;3.50;;;;;;;2.61;100.00;100127.94;5003006;28;20072;-64
2022/03/08 09:32:23;;;;;;;;;;;;;;;2.72;100.00;100129.88;4975884;28;20122;-63
2022/03/08 09:35:08;;;;;;;5.75;3.20;;;;;;;2.92;100.00;100128.47;5008651;28;20014;-64
2022/03/08 09:37:54;;;;;;;6.80;3.63;;;;;;;3.03;100.00;100131.25;4985464;28;20057;-64
2022/03/08 09:40:41;;;;;;;6.07;3.40;;;;;;;2.92;100.00;100112.75;4974038;28;20186;-68
2022/03/08 09:43:25;;;;;;;5.80;3.25;;;;;;;3.21;100.00;100139.41;4977016;28;20061;-64
2022/03/08 09:46:10;;;;;;;9.15;3.80;;;;;;;3.30;100.00;100144.75;4998342;28;20141;-63
2022/03/08 09:48:55;;;;;;;6.75;3.05;;;;;;;3.33;100.00;100150.91;5002726;28;20087;-62
2022/03/08 09:51:40;;;;;;;5.38;2.92;;;;;;;3.12;100.00;100113.94;5019538;28;20200;-63
2022/03/08 09:54:25;;;;;;;7.50;3.95;;;;;;;3.39;100.00;100135.31;5019843;28;20592;-65
2022/03/08 09:57:11;;;;;;;;;;;;;;;3.58;100.00;100146.91;5003513;28;20054;-63
2022/03/08 09:59:56;;;;;;;5.30;3.17;;;;;;;3.40;100.00;100144.91;5019002;28;19924;-66
2022/03/08 10:02:42;;;;;;;5.35;3.00;;;;;;;3.39;100.00;100156.28;5003233;28;20465;-63
2022/03/08 10:05:43;;;;;;;4.88;3.25;;;;;;;3.38;100.00;100157.13;5013969;28;20132;-62
2022/03/08 10:08:28;;;;;;;5.93;3.55;;;;;;;3.35;100.00;100138.72;5008631;28;20060;-66
2022/03/08 10:11:14;;;;;;;7.38;3.83;;;;;;;3.64;100.00;100157.50;5010813;28;20057;-61
2022/03/08 10:13:59;;;;;;;6.05;3.38;;;;;;;3.36;100.00;100100.31;4988503;28;20112;-62
2022/03/08 10:16:48;;;;;;;6.18;3.20;;;;;;;3.68;99.86;100167.16;4975773;28;20116;-62
2022/03/08 10:19:50;;;;;;;5.65;3.25;;;;;;;3.56;99.17;100162.63;4981914;28;20072;-62
2022/03/08 10:22:38;;;;;;;5.75;3.47;;;;;;;3.30;98.74;100163.09;4999246;28;20048;-61
2022/03/08 10:25:26;;;;;;;5.72;3.20;;;;;;;3.19;99.90;100165.56;4995655;28;20100;-63
2022/03/08 10:28:12;;;;;;;5.07;3.22;;;;;;;3.09;99.86;100174.13;4970500;28;20120;-63
2022/03/08 10:30:56;;;;;;;6.53;3.42;;;;;;;3.03;100.00;100168.81;4968747;28;20104;-64
2022/03/08 10:33:42;;;;;;;5.25;3.35;;;;;;;3.10;100.00;100178.53;4983848;28;20060;-63
2022/03/08 10:36:28;;;;;;;4.97;3.10;;;;;;;2.79;99.15;100128.22;5004087;28;20056;-65
2022/03/08 10:39:16;;;;;;;5.18;3.20;;;;;;;2.56;100.00;100124.34;4977926;28;20433;-64
2022/03/08 10:42:01;;;;;;;6.55;3.33;;;;;;;2.91;100.00;100188.66;5004916;28;20472;-62
2022/03/08 10:44:45;;;;;;;5.82;3.08;;;;;;;2.39;100.00;100145.00;4978406;28;20057;-65
2022/03/08 10:47:51;;;;;;;5.82;3.40;;;;;;;2.79;100.00;100197.19;4988926;28;20068;-62
2022/03/08 10:50:37;;;;;;;4.95;2.97;;;;;;;2.63;100.00;100204.75;4996151;28;20064;-63
2022/03/08 10:53:25;;;;;;;5.07;3.35;;;;;;;2.57;100.00;100202.03;4980384;28;20089;-66
2022/03/08 10:56:11;;;;;;;4.25;3.05;;;;;;;2.66;100.00;100174.28;4995871;28;20190;-63
2022/03/08 10:59:01;;;;;;;5.93;2.65;;;;;;;2.54;100.00;100204.59;4977280;28;20053;-65
2022/03/08 11:01:46;;;;;;;5.07;2.70;;;;;;;2.40;100.00;100198.19;4975281;28;20049;-64
2022/03/08 11:04:30;;;;;;;5.72;3.28;;;;;;;2.21;100.00;100159.47;4973365;28;20474;-63
2022/03/08 11:07:16;;;;;;;6.35;3.50;;;;;;;2.76;100.00;100209.34;4977255;28;20459;-69
2022/03/08 11:10:04;;;;;;;6.72;3.83;;;;;;;3.02;98.94;100216.81;4967106;28;20057;-63
2022/03/08 11:12:49;;;;;;;5.80;3.10;;;;;;;3.15;97.65;100195.19;4995772;28;20060;-66
2022/03/08 11:15:36;;;;;;;6.57;2.88;;;;;;;3.09;96.14;100202.09;5013277;28;20056;-64
2022/03/08 11:18:22;;;;;;;5.35;3.10;;;;;;;2.78;95.73;100220.72;5022734;28;20095;-63
2022/03/08 11:21:07;;;;;;;4.28;2.70;;;;;;;2.46;97.42;100212.28;5011879;28;20060;-66
2022/03/08 11:23:52;;;;;;;4.57;2.70;;;;;;;2.52;98.65;100220.25;5007954;28;20049;-63
2022/03/08 11:26:38;;;;;;;4.55;2.72;;;;;;;2.64;98.71;100216.97;5002086;28;20045;-62
2022/03/08 11:29:23;;;;;;;10.05;3.53;;;;;;;2.88;98.01;100214.78;4991226;28;20172;-63
2022/03/08 11:32:14;;;;;;;4.78;3.10;;;;;;;2.99;96.53;100219.38;5015998;28;20124;-62
2022/03/08 11:35:11;;;;;;;8.32;3.08;;;;;;;2.73;96.66;100223.25;5001897;28;20061;-66
2022/03/08 11:37:57;;;;;;;6.38;2.85;;;;;;;2.77;97.30;100221.59;5016339;28;20111;-63
2022/03/08 11:40:54;;;;;;;4.78;2.65;;;;;;;2.86;96.70;100227.00;4974563;28;20068;-63
2022/03/08 11:43:46;;;;;;;9.00;3.08;;;;;;;2.82;97.01;100223.44;5016056;28;20104;-66
2022/03/08 11:46:31;;;;;;;7.65;3.20;;;;;;;2.75;95.58;100221.56;4999890;28;20133;-63
2022/03/08 11:49:15;;;;;;;4.78;3.20;;;;;;;2.73;94.71;100186.59;5019011;28;20114;-63
2022/03/08 11:52:15;;;;;;;9.98;3.20;;;;;;;2.65;94.83;100213.53;4996993;28;20092;-65
2022/03/08 11:55:03;;;;;;;5.80;3.45;;;;;;;2.93;95.99;100216.63;4975402;28;20103;-64
2022/03/08 11:57:48;;;;;;;6.50;3.25;;;;;;;2.89;95.76;100211.34;4972577;28;20076;-63
2022/03/08 12:00:37;;;;;;;;;;;;;;;2.98;95.80;100215.00;4993908;28;20060;-63
2022/03/08 12:03:24;;;;;;;7.57;3.20;;;;;;;3.01;94.07;100216.78;5010148;28;19924;-62
2022/03/08 12:06:12;;;;;;;7.60;3.30;;;;;;;2.74;93.92;100211.97;5026168;28;20178;-62
2022/03/08 12:09:23;;;;;;;8.00;3.70;;;;;;;2.91;94.83;100218.38;5025565;28;20057;-60
2022/03/08 12:12:08;;;;;;;5.22;3.30;;;;;;;2.66;94.86;100229.25;5020593;28;20079;-59
2022/03/08 12:15:01;;;;;;;;;;;;;;;2.87;95.78;100226.13;5020748;28;20554;-60
2022/03/08 12:18:17;;;;;;;8.30;3.50;;;;;;;2.80;95.51;100238.22;5002839;28;19928;-65
2022/03/08 12:21:14;;;;;;;9.97;4.27;;;;;;;2.91;95.08;100241.03;5008769;28;20060;-63
2022/03/08 12:24:08;;;;;;;8.30;3.50;;;;;;;2.96;95.00;100223.66;5002592;28;20071;-60
2022/03/08 12:26:52;;;;;;;7.10;3.67;;;;;;;2.72;94.97;100236.31;5015281;28;20055;-63
2022/03/08 12:29:58;;;;;;;7.00;3.33;;;;;;;2.74;95.90;100232.00;5029578;28;20130;-64
2022/03/08 12:32:43;;;;;;;7.63;3.20;;;;;;;2.67;95.94;100240.59;5014807;28;20489;-62
2022/03/08 12:35:28;;;;;;;6.00;3.08;;;;;;;2.62;95.95;100234.41;4996356;28;20410;-61
2022/03/08 12:38:17;;;;;;;5.43;3.30;;;;;;;2.33;95.74;100191.09;5028628;28;20061;-63
2022/03/08 12:41:02;;;;;;;5.82;3.63;;;;;;;2.21;95.92;100204.81;5030727;28;20048;-63
2022/03/08 12:43:59;;;;;;;7.50;3.97;;;;;;;2.66;97.03;100251.94;5015688;28;20615;-62
2022/03/08 12:46:44;;;;;;;12.15;3.70;;;;;;;2.66;96.15;100246.69;5013661;28;20519;-64
2022/03/08 12:49:30;;;;;;;7.07;3.80;;;;;;;2.58;96.05;100249.19;5030768;28;20532;-73
2022/03/08 12:52:18;;;;;;;7.30;3.80;;;;;;;2.58;96.58;100257.03;5013393;28;20091;-62
2022/03/08 12:55:06;;;;;;;6.82;3.17;;;;;;;2.50;97.05;100263.81;4987565;28;20482;-63
2022/03/08 12:57:57;;;;;;;8.38;3.80;;;;;;;2.44;96.88;100261.09;4987038;28;20130;-62
2022/03/08 13:00:55;;;;;;;7.20;3.38;;;;;;;2.16;98.12;100265.72;4968471;28;20133;-62
2022/03/08 13:03:45;;;;;;;4.90;3.25;;;;;;;2.29;99.68;100255.53;4974425;28;20057;-62